Domov               UVHVVR             MKGP            O straneh              
ZDRAVSTVENO VARSTVO RASTLIN
  MREŽA AGROMET. POSTAJ
 ► PROGNOSTIČNA OBVESTILA
AGROMETEOROLOŠKI PODATKI -
ARSO
OBVLADOVANJE TVEGANJ ZARADI
NEUGODNIH VREMENSKIH RAZMER
  ► NARAVNE NESREČE
  ► SUŠA/MOČA
  ► NAMAKANJE
  ► ŽLED (gozdarstvo)
KARTOGRAFSKI PRIKAZI
SPLETNE POVEZAVE
PROJEKTI IN PUBLIKACIJE

AGROMETEOROLOŠKA MREŽA: VREMENSKE POSTAJE IN FENOLOŠKA OPAZOVANJA

Pregled podatkov za lokacijo Ritoznoj, meteorološka postaja 27393

Pregled senzorjev na lokaciji

ID Ime Zadnja
vrednost
Datum
zadnje
spremembe
Tip
senzorja
4401 Omočenost lista (U) 0 U 23.3.2019 12:06 A730WET
4402 Padavine (mm) 0 mm 23.3.2019 12:06 Generic 0.2 mm
4400 Relativna vlaga 2 m (% RH) 31,62 % RH 23.3.2019 12:06 Generic 0 - 100 %
4399 Temperatura 2 m (°C) 15,14 °C 23.3.2019 12:06 Generic -40 - +60 °C

Pregled podatkov zadnjih 24 ur

Zap.
št.
Datum in čas Ritoznoj
Omočenost
lista
Padavine Relativna
vlaga
2
m
Temperatura
2
m
1 23.3.2019 11:30
2 23.3.2019 11:00 0 0 31,6 15,1
3 23.3.2019 10:30 0 0 34,3 14,6
4 23.3.2019 10:00 0 0 32,6 14,3
5 23.3.2019 09:30 0 0 35,5 13,6
6 23.3.2019 09:00 0 0 44 10,9
7 23.3.2019 08:30 0 0 44,6 10,2
8 23.3.2019 08:00 0 0 50,3 8,6
9 23.3.2019 07:30 0 0 50 9,5
10 23.3.2019 07:00 0 0 39,7 8,3
11 23.3.2019 06:30 0 0 34,7 9,9
12 23.3.2019 06:00 0 0 38,5 6,8
13 23.3.2019 05:30 0 0 47,6 7,4
14 23.3.2019 05:00 0 0 51,8 5,2
15 23.3.2019 04:30 0 0 62,5 4,4
16 23.3.2019 04:00 0 0 56 5,8
17 23.3.2019 03:30 0 0 47,5 7,1
18 23.3.2019 03:00 0 0 40,7 8,1
19 23.3.2019 02:30 0 0 39,1 8,4
20 23.3.2019 02:00 0 0 38,9 8,5
21 23.3.2019 01:30 0 0 37,8 8,7
22 23.3.2019 01:00 0 0 35,9 9,3
23 23.3.2019 00:30 0 0 35,6 9,5
24 23.3.2019 00:00 0 0 35,8 9,3
25 22.3.2019 23:30 0 0 35,4 9,5
26 22.3.2019 23:00 0 0 34,7 10,4
27 22.3.2019 22:30 0 0 35,7 10,4
28 22.3.2019 22:00 0 0 32 11,1
29 22.3.2019 21:30 0 0 30,7 11,4
30 22.3.2019 21:00 0 0 30,5 11,3
31 22.3.2019 20:30 0 0 30,2 11,5
32 22.3.2019 20:00 0 0 30,3 11,7
33 22.3.2019 19:30 0 0 29,4 11,9
34 22.3.2019 19:00 0 0 29 12
35 22.3.2019 18:30 0 0 30,1 12,1
36 22.3.2019 18:00 0 0 31,1 12,4
37 22.3.2019 17:30 0 0 30,6 13,3
38 22.3.2019 17:00 0 0 29,2 14,3
39 22.3.2019 16:30 0 0 26,8 14,9
40 22.3.2019 16:00 0 0 26,6 14,8
41 22.3.2019 15:30 0 0 25,3 15,1
42 22.3.2019 15:00 0 0 24,5 15,1
43 22.3.2019 14:30 0 0 24,1 14,6
44 22.3.2019 14:00 0 0 23,6 14,5
45 22.3.2019 13:30 0 0 27,1 14
46 22.3.2019 13:00 0 0 28,6 13,8
47 22.3.2019 12:30 0 0 29,7 13,8
48 22.3.2019 12:00 0 0 29,1 13,8
© 2011 Ministrstvo za kmetijstvo, gozdarstvo in prehrano. Vse pravice pridržane.